Time;durP1;ratioP1;P1;durP2;ratioP2;P2;SDS_P1;SDS_P2;PMS_P1;PMS_P2;Temp;Humidity;BMP_temperature;BMP_pressure;BME280_temperature;BME280_humidity;BME280_pressure;Samples;Min_cycle;Max_cycle;Signal;HPM_P1;HPM_P2
2021/08/17 00:00:31;;;;;;;4.17;2.55;;;;;;;14.84;74.67;98623.30;1740426;80;21691;-62
2021/08/17 00:02:59;;;;;;;2.92;1.92;;;;;;;14.83;74.75;98622.95;1735797;80;21485;-62
2021/08/17 00:05:26;;;;;;;3.17;2.07;;;;;;;14.79;74.74;98629.44;1745181;80;20903;-62
2021/08/17 00:07:53;;;;;;;2.87;2.02;;;;;;;14.76;74.70;98636.27;1733107;80;28573;-62
2021/08/17 00:10:19;;;;;;;2.93;2.43;;;;;;;14.74;74.82;98634.23;1744740;80;21011;-62
2021/08/17 00:12:46;;;;;;;2.20;1.90;;;;;;;14.75;74.85;98629.32;1756941;80;21446;-62
2021/08/17 00:15:13;;;;;;;3.12;2.17;;;;;;;14.74;74.83;98627.66;1735771;81;20994;-62
2021/08/17 00:17:40;;;;;;;4.50;2.50;;;;;;;14.73;74.87;98625.98;1747253;81;20994;-62
2021/08/17 00:20:09;;;;;;;3.52;2.20;;;;;;;14.72;74.89;98626.95;1743566;80;20966;-62
2021/08/17 00:22:37;;;;;;;5.80;2.25;;;;;;;14.72;74.96;98614.64;1733638;80;20978;-62
2021/08/17 00:25:06;;;;;;;3.65;2.15;;;;;;;14.71;74.97;98617.41;1746210;80;21112;-62
2021/08/17 00:27:33;;;;;;;3.77;2.20;;;;;;;14.72;74.91;98619.06;1756682;80;21081;-62
2021/08/17 00:30:00;;;;;;;3.98;2.17;;;;;;;14.70;74.90;98624.92;1730162;80;20947;-62
2021/08/17 00:32:27;;;;;;;3.27;1.60;;;;;;;14.68;74.87;98621.61;1748267;80;20974;-62
2021/08/17 00:34:54;;;;;;;4.17;1.85;;;;;;;14.65;74.81;98615.29;1745854;80;21066;-62
2021/08/17 00:37:21;;;;;;;1.83;1.63;;;;;;;14.59;74.78;98619.25;1740481;79;21465;-62
2021/08/17 00:39:47;;;;;;;5.25;1.57;;;;;;;14.52;74.71;98618.89;1730668;80;21590;-62
2021/08/17 00:42:14;;;;;;;3.87;1.80;;;;;;;14.45;74.70;98612.45;1737834;80;20958;-62
2021/08/17 00:44:42;;;;;;;2.87;1.40;;;;;;;14.39;74.71;98619.48;1744459;80;20950;-62
2021/08/17 00:47:14;;;;;;;2.20;1.60;;;;;;;14.34;74.77;98615.11;1751241;80;20919;-62
2021/08/17 00:49:41;;;;;;;1.92;1.37;;;;;;;14.30;74.76;98613.67;1738440;80;21451;-62
2021/08/17 00:52:10;;;;;;;2.25;1.47;;;;;;;14.25;74.77;98613.20;1735672;80;21041;-62
2021/08/17 00:54:40;;;;;;;1.82;1.50;;;;;;;14.19;74.76;98608.45;1746103;80;21504;-62
2021/08/17 00:57:07;;;;;;;2.37;1.47;;;;;;;14.13;74.72;98604.52;1746734;80;21007;-62
2021/08/17 00:59:34;;;;;;;2.72;1.50;;;;;;;14.08;74.70;98595.69;1739186;80;21485;-62
2021/08/17 01:02:02;;;;;;;1.27;1.03;;;;;;;14.03;74.67;98596.56;1745930;80;21488;-62
2021/08/17 01:04:29;;;;;;;2.10;1.17;;;;;;;14.00;74.69;98595.49;1732603;80;20974;-62
2021/08/17 01:06:57;;;;;;;4.10;1.27;;;;;;;13.95;74.63;98601.58;1746072;80;21568;-62
2021/08/17 01:09:23;;;;;;;1.75;1.17;;;;;;;13.92;74.64;98609.70;1737295;80;21034;-62
2021/08/17 01:11:50;;;;;;;1.42;1.30;;;;;;;13.89;74.67;98599.41;1735094;80;21488;-62
2021/08/17 01:14:20;;;;;;;2.42;1.42;;;;;;;13.88;74.67;98612.19;1745217;81;21452;-62
2021/08/17 01:16:48;;;;;;;2.40;1.52;;;;;;;13.85;74.68;98604.56;1749049;80;21089;-62
2021/08/17 01:19:19;;;;;;;4.08;1.37;;;;;;;13.84;74.72;98606.84;1740523;81;21022;-62
2021/08/17 01:21:44;;;;;;;2.83;1.52;;;;;;;13.73;74.75;98585.85;1747168;81;21519;-62
2021/08/17 01:24:11;;;;;;;1.95;1.37;;;;;;;13.76;74.66;98603.97;1749936;80;20926;-62
2021/08/17 01:26:38;;;;;;;1.60;1.20;;;;;;;13.66;74.56;98602.05;1753338;80;21051;-62
2021/08/17 01:29:04;;;;;;;2.42;1.42;;;;;;;13.62;74.54;98604.56;1749899;81;20947;-62
2021/08/17 01:31:31;;;;;;;1.33;1.03;;;;;;;13.53;74.39;98601.34;1749548;80;20919;-62
2021/08/17 01:33:58;;;;;;;2.67;1.52;;;;;;;13.44;74.43;98598.10;1734018;80;21666;-62
2021/08/17 01:36:24;;;;;;;3.07;1.60;;;;;;;13.37;74.48;98599.06;1740488;78;21033;-62
2021/08/17 01:38:52;;;;;;;2.47;1.47;;;;;;;13.34;74.46;98595.37;1753817;80;21482;-62
2021/08/17 01:41:19;;;;;;;2.17;1.45;;;;;;;13.32;74.53;98592.50;1711682;82;20907;-62
2021/08/17 01:43:49;;;;;;;2.37;1.30;;;;;;;13.30;74.41;98594.39;1745141;81;21002;-62
2021/08/17 01:46:17;;;;;;;2.65;1.27;;;;;;;13.25;74.32;98601.73;1746353;80;21116;-61
2021/08/17 01:48:45;;;;;;;1.75;1.40;;;;;;;13.17;74.28;98594.00;1742504;80;20994;-62
2021/08/17 01:51:12;;;;;;;2.02;1.30;;;;;;;13.12;74.25;98597.44;1746837;81;21437;-62
2021/08/17 01:53:39;;;;;;;1.98;1.42;;;;;;;13.07;74.21;98605.29;1749137;80;22846;-62
2021/08/17 01:56:15;;;;;;;3.65;1.45;;;;;;;13.02;74.11;98599.07;1737521;81;24315;-61
2021/08/17 01:58:42;;;;;;;1.67;1.30;;;;;;;12.97;74.08;98605.16;1677024;84;21037;-62
2021/08/17 02:01:10;;;;;;;;;;;;;;;12.93;74.10;98597.15;1702945;82;20959;-62
2021/08/17 02:03:37;;;;;;;3.42;1.57;;;;;;;12.91;74.08;98599.04;1695157;83;21519;-62
2021/08/17 02:06:05;;;;;;;;;;;;;;;12.89;74.06;98606.20;1705598;83;20943;-62
2021/08/17 02:08:32;;;;;;;4.25;1.62;;;;;;;12.87;74.11;98605.47;1686665;83;20121;-62
2021/08/17 02:10:59;;;;;;;2.47;1.47;;;;;;;12.84;74.06;98611.77;1703616;82;21038;-62
2021/08/17 02:13:27;;;;;;;3.85;1.67;;;;;;;12.82;74.10;98610.21;1719132;83;21052;-61
2021/08/17 02:15:53;;;;;;;4.28;1.52;;;;;;;12.81;74.12;98612.48;1720968;81;21076;-62
2021/08/17 02:18:20;;;;;;;4.40;1.50;;;;;;;12.76;74.09;98612.33;1710877;83;20985;-62
2021/08/17 02:20:47;;;;;;;3.77;1.37;;;;;;;12.73;74.10;98604.70;1723828;83;21020;-62
2021/08/17 02:23:13;;;;;;;4.90;1.45;;;;;;;12.73;74.16;98602.56;1719976;82;21480;-61
2021/08/17 02:25:41;;;;;;;3.30;1.70;;;;;;;12.69;74.12;98603.27;1700836;82;20992;-62
2021/08/17 02:28:08;;;;;;;2.35;1.65;;;;;;;12.66;74.11;98606.13;1706195;82;21133;-61
2021/08/17 02:30:35;;;;;;;5.70;2.75;;;;;;;12.61;74.16;98592.52;1703782;82;21082;-61
2021/08/17 02:33:01;;;;;;;4.33;1.80;;;;;;;12.58;74.21;98597.16;1721399;83;21031;-61
2021/08/17 02:35:28;;;;;;;4.90;2.25;;;;;;;12.56;74.26;98588.09;1712820;83;20937;-62
2021/08/17 02:37:54;;;;;;;6.47;1.70;;;;;;;12.56;74.37;98592.02;1716854;83;21700;-61
2021/08/17 02:40:21;;;;;;;3.83;1.82;;;;;;;12.53;74.34;98584.39;1712137;83;21154;-61
2021/08/17 02:42:48;;;;;;;4.20;1.70;;;;;;;12.49;74.40;98585.55;1715285;81;21234;-61
2021/08/17 02:45:14;;;;;;;3.17;1.98;;;;;;;12.47;74.41;98580.45;1712300;81;22364;-62
2021/08/17 02:47:41;;;;;;;5.43;1.63;;;;;;;12.43;74.42;98583.39;1714555;81;21041;-62
2021/08/17 02:50:09;;;;;;;4.87;1.73;;;;;;;12.40;74.50;98580.99;1724707;81;20906;-61
2021/08/17 02:52:36;;;;;;;3.72;1.65;;;;;;;12.40;74.64;98580.99;1707679;82;21162;-62
2021/08/17 02:55:04;;;;;;;7.08;1.80;;;;;;;12.40;74.62;98580.99;1710004;83;20981;-61
2021/08/17 02:57:31;;;;;;;4.90;1.85;;;;;;;12.35;74.61;98580.05;1704846;81;21008;-61
2021/08/17 02:59:57;;;;;;;2.77;1.30;;;;;;;12.31;74.68;98572.86;1713195;83;21154;-61
2021/08/17 03:02:24;;;;;;;4.30;1.70;;;;;;;12.30;74.79;98568.59;1715595;82;21531;-62
2021/08/17 03:04:51;;;;;;;2.50;1.40;;;;;;;12.29;74.80;98564.31;1698021;82;21116;-61
2021/08/17 03:07:17;;;;;;;5.30;2.02;;;;;;;12.26;74.84;98563.20;1698917;83;20914;-62
2021/08/17 03:09:44;;;;;;;2.57;1.40;;;;;;;12.24;74.86;98557.73;1696171;83;20934;-64
2021/08/17 03:12:10;;;;;;;6.23;2.63;;;;;;;12.19;74.87;98556.75;1713921;83;21563;-63
2021/08/17 03:14:37;;;;;;;5.97;2.98;;;;;;;12.15;74.94;98548.75;1701641;81;21033;-64
2021/08/17 03:17:04;;;;;;;5.08;1.85;;;;;;;12.10;74.96;98548.27;1703221;81;21446;-63
2021/08/17 03:19:31;;;;;;;5.80;1.80;;;;;;;12.08;75.08;98553.59;1711053;81;21578;-64
2021/08/17 03:21:57;;;;;;;3.37;1.40;;;;;;;12.06;75.11;98546.80;1701226;83;21009;-63
2021/08/17 03:24:24;;;;;;;4.33;2.00;;;;;;;12.06;75.19;98546.80;1702356;83;21028;-63
2021/08/17 03:26:51;;;;;;;4.50;1.52;;;;;;;12.07;75.24;98544.53;1708725;83;20957;-63
2021/08/17 03:29:19;;;;;;;3.62;2.33;;;;;;;12.06;75.24;98546.32;1711099;83;21095;-64
2021/08/17 03:31:46;;;;;;;4.17;1.67;;;;;;;12.04;75.27;98546.06;1709843;81;21543;-64
2021/08/17 03:34:12;;;;;;;2.87;1.50;;;;;;;12.03;75.32;98544.41;1715945;83;20953;-64
2021/08/17 03:36:39;;;;;;;5.40;1.83;;;;;;;12.00;75.36;98548.08;1711083;83;21059;-64
2021/08/17 03:39:05;;;;;;;4.13;1.43;;;;;;;12.02;75.45;98547.98;1713439;83;21559;-63
2021/08/17 03:41:32;;;;;;;4.53;1.72;;;;;;;12.02;75.47;98545.37;1710797;81;21504;-64
2021/08/17 03:43:59;;;;;;;4.72;1.77;;;;;;;12.04;75.57;98553.92;1706385;83;20930;-63
2021/08/17 03:46:27;;;;;;;2.90;1.63;;;;;;;12.04;75.55;98551.30;1714551;81;20981;-63
2021/08/17 03:48:54;;;;;;;2.77;1.50;;;;;;;12.04;75.60;98556.53;1722668;81;20954;-64
2021/08/17 03:51:20;;;;;;;3.12;1.47;;;;;;;12.05;75.67;98557.75;1712883;83;21539;-64
2021/08/17 03:53:47;;;;;;;5.80;1.55;;;;;;;12.07;75.60;98551.08;1719548;82;21109;-64
2021/08/17 03:56:14;;;;;;;3.47;1.72;;;;;;;12.06;75.63;98550.73;1721751;81;20902;-63
2021/08/17 03:58:40;;;;;;;4.50;1.80;;;;;;;12.06;75.71;98549.42;1710959;81;20906;-64
2021/08/17 04:01:07;;;;;;;3.67;1.90;;;;;;;12.05;75.73;98545.14;1696766;82;22080;-64
2021/08/17 04:03:33;;;;;;;2.67;1.57;;;;;;;12.05;75.75;98539.91;1715850;82;21108;-64
2021/08/17 04:06:00;;;;;;;5.20;1.98;;;;;;;12.04;75.79;98540.84;1721353;81;21430;-63
2021/08/17 04:08:27;;;;;;;4.17;1.62;;;;;;;12.05;75.89;98545.97;1721091;83;20977;-63
2021/08/17 04:10:54;;;;;;;4.57;2.53;;;;;;;12.07;75.88;98543.23;1721540;81;21590;-63
2021/08/17 04:13:20;;;;;;;1.80;1.32;;;;;;;12.07;75.88;98536.69;1714339;83;21004;-63
2021/08/17 04:15:47;;;;;;;4.17;1.50;;;;;;;12.08;75.92;98534.45;1720911;83;20985;-63
2021/08/17 04:18:14;;;;;;;3.63;1.70;;;;;;;12.11;75.96;98536.84;1726845;81;22327;-64
2021/08/17 04:20:41;;;;;;;4.85;2.05;;;;;;;12.14;75.95;98536.63;1706975;81;21004;-63
2021/08/17 04:23:07;;;;;;;3.10;1.73;;;;;;;12.12;75.91;98538.50;1726931;81;21072;-64
2021/08/17 04:25:34;;;;;;;2.47;1.50;;;;;;;12.15;76.01;98530.43;1718738;81;21091;-64
2021/08/17 04:28:01;;;;;;;7.15;1.75;;;;;;;12.18;75.94;98527.59;1736756;81;21052;-64
2021/08/17 04:30:27;;;;;;;4.42;1.87;;;;;;;12.19;76.00;98528.45;1718737;81;21579;-64
2021/08/17 04:32:54;;;;;;;2.93;1.90;;;;;;;12.21;75.98;98527.39;1713891;81;20934;-64
2021/08/17 04:35:21;;;;;;;3.92;1.72;;;;;;;12.20;75.99;98530.94;1705041;83;20917;-64
2021/08/17 04:37:48;;;;;;;4.72;2.25;;;;;;;12.17;76.00;98531.16;1736774;81;20946;-64
2021/08/17 04:40:15;;;;;;;4.10;1.63;;;;;;;12.18;75.96;98543.28;1722436;81;21028;-64
2021/08/17 04:42:42;;;;;;;4.95;1.90;;;;;;;12.21;75.91;98534.38;1729636;81;21167;-64
2021/08/17 04:45:11;;;;;;;3.40;1.70;;;;;;;12.21;75.91;98534.38;1729653;81;20977;-64
2021/08/17 04:47:52;;;;;;;5.67;2.98;;;;;;;12.18;75.92;98535.44;1712164;81;20958;-64
2021/08/17 04:50:20;;;;;;;3.27;1.65;;;;;;;12.17;75.97;98546.86;1719724;81;21032;-64
2021/08/17 04:52:47;;;;;;;2.98;1.50;;;;;;;12.17;75.97;98540.80;1717886;81;20997;-64
2021/08/17 04:55:14;;;;;;;7.22;2.80;;;;;;;12.18;76.01;98543.28;1710321;81;21155;-64
2021/08/17 04:57:51;;;;;;;4.28;1.70;;;;;;;12.21;76.00;98545.70;1723260;81;21045;-64
2021/08/17 05:00:18;;;;;;;6.70;1.60;;;;;;;12.24;76.05;98555.95;1731788;81;22394;-64
2021/08/17 05:02:46;;;;;;;3.67;1.82;;;;;;;12.25;76.00;98544.52;1727404;81;21713;-64
2021/08/17 05:05:12;;;;;;;4.33;1.80;;;;;;;12.25;76.03;98544.52;1735804;81;21555;-64
2021/08/17 05:07:41;;;;;;;6.22;2.20;;;;;;;12.24;75.99;98551.20;1731868;81;21126;-64
2021/08/17 05:10:16;;;;;;;5.45;1.82;;;;;;;12.41;76.37;98543.42;1735376;81;21024;-64
2021/08/17 05:12:44;;;;;;;4.15;1.72;;;;;;;12.41;76.37;98543.42;1725782;81;21519;-64
2021/08/17 05:15:12;;;;;;;3.85;2.50;;;;;;;12.81;76.74;98545.69;1707801;81;21571;-64
2021/08/17 05:17:39;;;;;;;3.47;1.90;;;;;;;14.10;77.27;98533.89;1699155;83;21297;-65
2021/08/17 05:20:09;;;;;;;3.95;1.98;;;;;;;15.58;76.27;98546.12;1724882;81;21564;-65
2021/08/17 05:22:36;;;;;;;3.37;1.70;;;;;;;16.12;74.75;98537.00;1725061;83;21567;-64
2021/08/17 05:25:03;;;;;;;4.97;2.12;;;;;;;17.13;75.18;98529.12;1720588;82;20982;-65
2021/08/17 05:27:29;;;;;;;;;;;;;;;18.26;74.15;98521.91;1729585;82;20983;-65
2021/08/17 05:29:56;;;;;;;6.58;2.15;;;;;;;19.36;72.89;98517.47;1688791;84;20131;-65
2021/08/17 05:32:23;;;;;;;4.33;2.08;;;;;;;20.19;72.86;98502.19;1698306;83;22215;-65
2021/08/17 05:34:50;;;;;;;4.70;1.85;;;;;;;20.82;71.92;98494.63;1721587;81;21028;-65
2021/08/17 05:37:17;;;;;;;6.53;1.75;;;;;;;21.57;71.33;98488.48;1720032;81;20993;-65
2021/08/17 05:39:45;;;;;;;3.42;2.00;;;;;;;21.96;69.56;98487.62;1716339;81;21024;-65
2021/08/17 05:42:12;;;;;;;3.92;1.90;;;;;;;21.79;68.49;98486.03;1709270;81;20910;-65
2021/08/17 05:44:42;;;;;;;3.10;1.50;;;;;;;21.46;68.60;98490.19;1713789;81;21673;-65
2021/08/17 05:47:10;;;;;;;3.50;1.50;;;;;;;20.97;68.12;98494.27;1720489;81;20949;-65
2021/08/17 05:49:37;;;;;;;4.65;1.90;;;;;;;20.46;67.35;98483.84;1719723;81;21559;-65
2021/08/17 05:52:07;;;;;;;5.75;1.80;;;;;;;20.41;67.86;98482.67;1715296;81;21566;-65
2021/08/17 05:54:33;;;;;;;4.20;1.50;;;;;;;20.84;67.72;98475.38;1725091;81;20918;-65
2021/08/17 05:57:01;;;;;;;3.70;1.72;;;;;;;21.27;67.65;98473.30;1715402;81;21422;-65
2021/08/17 05:59:29;;;;;;;5.40;1.45;;;;;;;22.12;67.63;98476.89;1718973;81;21491;-65
2021/08/17 06:01:58;;;;;;;4.00;1.67;;;;;;;22.52;65.30;98479.45;1731347;81;21527;-65
2021/08/17 06:04:26;;;;;;;3.90;1.80;;;;;;;22.23;64.56;98480.97;1726416;81;21600;-65
2021/08/17 06:06:53;;;;;;;4.28;1.50;;;;;;;21.49;63.60;98477.89;1727466;81;21567;-65
2021/08/17 06:09:21;;;;;;;6.72;1.30;;;;;;;20.85;64.39;98479.20;1724430;81;21911;-65
2021/08/17 06:11:51;;;;;;;4.53;1.35;;;;;;;20.21;63.97;98480.34;1726028;81;21021;-65
2021/08/17 06:14:18;;;;;;;4.03;1.45;;;;;;;19.55;63.99;98478.48;1717212;83;21495;-64
2021/08/17 06:16:45;;;;;;;2.85;1.20;;;;;;;18.95;64.32;98484.16;1714395;83;21033;-67
2021/08/17 06:19:12;;;;;;;4.90;1.40;;;;;;;18.51;64.01;98484.17;1720022;83;21004;-67
2021/08/17 06:21:39;;;;;;;1.98;1.30;;;;;;;17.95;63.73;98489.23;1719351;83;21433;-67
2021/08/17 06:24:06;;;;;;;;;;;;;;;17.43;63.43;98471.81;1726359;82;21089;-67
2021/08/17 06:26:34;;;;;;;2.33;1.05;;;;;;;16.92;63.99;98477.08;1695742;83;20097;-67
2021/08/17 06:29:01;;;;;;;6.97;1.42;;;;;;;16.67;64.08;98478.00;1710711;83;21065;-67
2021/08/17 06:31:27;;;;;;;2.12;1.05;;;;;;;16.41;63.99;98483.49;1714062;81;20961;-67
2021/08/17 06:33:57;;;;;;;4.50;1.25;;;;;;;16.24;64.17;98485.84;1706995;81;22304;-67
2021/08/17 06:36:24;;;;;;;2.02;1.12;;;;;;;16.04;64.10;98487.64;1712895;81;21006;-67
2021/08/17 06:38:51;;;;;;;37.35;4.70;;;;;;;15.89;64.09;98489.02;1714445;81;20973;-67
2021/08/17 06:41:25;;;;;;;8.23;1.60;;;;;;;15.76;64.17;98485.31;1711960;81;20906;-66
2021/08/17 06:43:51;;;;;;;18.85;2.37;;;;;;;15.65;63.99;98489.34;1704636;83;20950;-71
2021/08/17 06:46:18;;;;;;;5.95;1.35;;;;;;;15.42;64.10;98485.61;1698307;83;21948;-69
2021/08/17 06:48:44;;;;;;;31.07;2.75;;;;;;;15.27;64.19;98488.27;1720532;81;21013;-69
2021/08/17 06:51:11;;;;;;;8.03;1.80;;;;;;;15.17;64.30;98487.38;1723594;81;21481;-68
2021/08/17 06:53:39;;;;;;;4.35;1.30;;;;;;;15.13;64.35;98486.83;1720169;82;21550;-69
2021/08/17 06:56:06;;;;;;;;;;;;;;;15.21;64.53;98483.55;1724182;83;21049;-69
2021/08/17 06:58:33;;;;;;;6.97;1.45;;;;;;;15.35;64.63;98472.66;1684654;84;21199;-70
2021/08/17 07:01:02;;;;;;;5.17;1.40;;;;;;;15.52;64.46;98475.14;1716278;83;21032;-68
2021/08/17 07:03:29;;;;;;;65.95;5.75;;;;;;;15.55;64.36;98477.98;1715254;83;20898;-69
2021/08/17 07:05:56;;;;;;;6.47;1.82;;;;;;;15.62;64.49;98481.72;1688519;84;26626;-68
2021/08/17 07:08:23;;;;;;;9.38;1.52;;;;;;;15.30;64.09;98464.33;1706484;83;21529;-71
2021/08/17 07:10:50;;;;;;;111.88;6.12;;;;;;;15.30;64.09;98464.33;1722369;83;21145;-71
2021/08/17 07:13:17;;;;;;;5.15;1.20;;;;;;;15.09;64.14;98463.55;1720457;81;21010;-71
2021/08/17 07:15:43;;;;;;;11.53;2.22;;;;;;;14.97;64.26;98455.75;1730205;81;20934;-71
2021/08/17 07:18:10;;;;;;;8.15;1.52;;;;;;;15.02;64.47;98462.42;1717759;81;21040;-71
2021/08/17 07:20:37;;;;;;;3.15;1.45;;;;;;;15.10;64.30;98458.66;1686259;82;20987;-71
2021/08/17 07:23:04;;;;;;;13.25;1.57;;;;;;;15.24;64.51;98449.09;1718914;81;21513;-71
2021/08/17 07:25:32;;;;;;;2.75;1.05;;;;;;;15.51;64.80;98455.53;1710422;81;20957;-72
2021/08/17 07:27:58;;;;;;;;;;;;;;;15.77;64.34;98455.42;1722161;81;21021;-71
2021/08/17 07:30:25;;;;;;;59.70;6.73;;;;;;;16.00;64.71;98455.17;1720722;81;20172;-71
2021/08/17 07:32:51;;;;;;;11.80;1.55;;;;;;;16.46;64.76;98456.25;1722996;81;20969;-72
2021/08/17 07:35:20;;;;;;;25.75;3.25;;;;;;;16.86;64.43;98456.54;1688868;83;23992;-72
2021/08/17 07:37:49;;;;;;;25.92;3.12;;;;;;;17.21;64.14;98451.42;1720377;81;21008;-72
2021/08/17 07:40:17;;;;;;;12.37;1.80;;;;;;;17.54;63.97;98445.72;1715236;81;20985;-72
2021/08/17 07:42:45;;;;;;;10.13;1.95;;;;;;;17.76;63.23;98452.40;1717615;81;20954;-71
2021/08/17 07:45:14;;;;;;;17.87;2.02;;;;;;;17.82;63.30;98435.98;1719308;81;21036;-72
2021/08/17 07:47:42;;;;;;;43.87;4.37;;;;;;;17.64;62.78;98444.69;1708284;81;21078;-72
2021/08/17 07:50:11;;;;;;;7.83;2.33;;;;;;;17.51;63.07;98433.66;1712443;83;20976;-71
2021/08/17 07:52:38;;;;;;;6.75;1.30;;;;;;;17.53;63.05;98436.98;1716268;81;20969;-72
2021/08/17 07:55:08;;;;;;;13.10;2.40;;;;;;;17.37;62.43;98439.42;1720570;81;21040;-71
2021/08/17 07:57:35;;;;;;;16.02;2.30;;;;;;;16.98;62.35;98439.59;1721665;81;21016;-71
2021/08/17 08:00:01;;;;;;;2.90;1.12;;;;;;;16.65;62.53;98444.36;1724716;81;22358;-71
2021/08/17 08:02:28;;;;;;;45.40;4.62;;;;;;;16.45;62.72;98446.70;1713219;81;21064;-71
2021/08/17 08:04:55;;;;;;;71.25;7.25;;;;;;;16.28;62.89;98442.48;1714103;81;21547;-71
2021/08/17 08:07:21;;;;;;;7.47;1.60;;;;;;;16.19;63.08;98434.11;1724391;81;20986;-71
2021/08/17 08:09:48;;;;;;;80.83;7.60;;;;;;;16.29;63.27;98430.96;1720204;81;20941;-71
2021/08/17 08:12:15;;;;;;;148.55;10.70;;;;;;;16.48;63.13;98437.19;1723076;81;21444;-71
2021/08/17 08:14:42;;;;;;;68.42;5.97;;;;;;;16.64;62.72;98432.17;1723896;81;21023;-71
2021/08/17 08:17:09;;;;;;;28.32;4.58;;;;;;;16.84;63.01;98429.52;1727951;81;20994;-71
2021/08/17 08:19:37;;;;;;;4.47;1.40;;;;;;;17.22;63.32;98424.09;1721027;81;21015;-71
2021/08/17 08:22:05;;;;;;;67.00;5.87;;;;;;;17.62;62.35;98423.38;1728052;81;21016;-69
2021/08/17 08:24:33;;;;;;;23.02;2.90;;;;;;;17.73;62.29;98415.25;1731625;81;21112;-71
2021/08/17 08:27:00;;;;;;;176.65;12.95;;;;;;;17.81;61.77;98413.19;1730135;81;21021;-72
2021/08/17 08:29:26;;;;;;;;;;;;;;;17.82;61.60;98399.02;1719755;82;20930;-71
2021/08/17 08:31:53;;;;;;;30.62;3.52;;;;;;;17.80;61.76;98408.89;1694231;84;20085;-72
2021/08/17 08:34:20;;;;;;;44.40;2.95;;;;;;;17.83;61.59;98400.67;1701815;83;21021;-72
2021/08/17 08:36:47;;;;;;;76.00;5.58;;;;;;;17.76;61.77;98391.68;1704699;83;21537;-71
2021/08/17 08:39:14;;;;;;;40.12;5.58;;;;;;;17.79;61.11;98391.41;1702685;83;20983;-71
2021/08/17 08:41:41;;;;;;;84.10;7.60;;;;;;;17.78;61.48;98394.98;1706346;82;20929;-72
2021/08/17 08:44:08;;;;;;;60.78;5.50;;;;;;;18.01;61.67;98396.23;1712188;83;20951;-71
2021/08/17 08:46:35;;;;;;;323.45;30.75;;;;;;;18.26;61.45;98409.61;1689800;83;21433;-72
2021/08/17 08:49:04;;;;;;;79.30;8.58;;;;;;;18.43;60.80;98405.28;1704475;82;21442;-71
2021/08/17 08:51:33;;;;;;;86.28;6.37;;;;;;;18.65;60.91;98393.37;1696408;82;20969;-71
2021/08/17 08:54:05;;;;;;;270.88;21.55;;;;;;;18.82;60.34;98416.33;1703939;82;21817;-72
2021/08/17 08:56:34;;;;;;;14.63;1.45;;;;;;;18.68;59.91;98400.52;1704111;82;20970;-71
2021/08/17 08:59:01;;;;;;;12.70;1.62;;;;;;;18.35;59.69;98412.68;1682623;82;21129;-72
2021/08/17 09:01:27;;;;;;;78.15;6.60;;;;;;;18.27;59.80;98413.94;1711627;82;21257;-71
2021/08/17 09:03:56;;;;;;;13.95;2.40;;;;;;;18.02;59.61;98408.44;1721036;82;21080;-72
2021/08/17 09:06:32;;;;;;;51.37;5.28;;;;;;;17.92;59.79;98399.76;1721622;81;20989;-71
2021/08/17 09:09:16;;;;;;;14.83;2.12;;;;;;;18.13;60.16;98407.38;1700073;82;21025;-71
2021/08/17 09:11:47;;;;;;;10.98;1.65;;;;;;;18.50;60.24;98397.08;1725515;81;21503;-71
2021/08/17 09:14:31;;;;;;;40.15;3.60;;;;;;;18.62;59.30;98400.30;1723856;81;21479;-71
2021/08/17 09:17:06;;;;;;;30.62;3.00;;;;;;;18.55;59.38;98401.42;1720128;83;20950;-71
2021/08/17 09:19:42;;;;;;;15.13;2.05;;;;;;;18.76;59.55;98387.84;1722642;83;21555;-71
2021/08/17 09:22:19;;;;;;;86.00;8.38;;;;;;;19.17;59.31;98382.75;1719771;81;20977;-71
2021/08/17 09:24:48;;;;;;;;;;;;;;;19.44;59.38;98393.10;1723011;83;21068;-73
2021/08/17 09:27:19;;;;;;;49.18;4.30;;;;;;;19.57;58.51;98389.15;1731787;82;22412;-73
2021/08/17 09:29:53;;;;;;;80.42;6.90;;;;;;;19.49;58.33;98383.83;1722958;81;21555;-74
2021/08/17 09:32:24;;;;;;;81.67;7.95;;;;;;;19.38;58.61;98387.14;1706923;82;21029;-73
2021/08/17 09:34:55;;;;;;;38.40;3.27;;;;;;;19.30;58.46;98399.02;1702494;82;21112;-71
2021/08/17 09:37:32;;;;;;;84.95;8.15;;;;;;;19.28;57.87;98390.40;1697266;83;21104;-73
2021/08/17 09:40:02;;;;;;;44.75;3.20;;;;;;;19.20;58.00;98389.05;1707376;81;21079;-72
2021/08/17 09:42:32;;;;;;;82.82;9.88;;;;;;;19.36;57.79;98379.84;1698677;83;21536;-73
2021/08/17 09:45:18;;;;;;;9.08;1.77;;;;;;;19.31;57.75;98389.25;1677352;83;20974;-72
2021/08/17 09:47:48;;;;;;;9.55;1.12;;;;;;;19.38;57.69;98401.69;1688142;82;20977;-72
2021/08/17 09:50:28;;;;;;;11.03;1.50;;;;;;;19.34;57.50;98395.55;1701576;83;21630;-72
2021/08/17 09:53:17;;;;;;;16.52;2.05;;;;;;;19.57;57.67;98390.47;1718430;83;21135;-72
2021/08/17 09:55:53;;;;;;;12.78;1.80;;;;;;;19.72;56.75;98386.25;1714687;81;21052;-72
2021/08/17 09:58:33;;;;;;;11.47;1.43;;;;;;;19.51;56.86;98388.48;1718385;81;21541;-72
2021/08/17 10:01:07;;;;;;;126.55;14.55;;;;;;;19.58;56.44;98389.50;1718949;83;21559;-72
2021/08/17 10:03:35;;;;;;;60.15;6.55;;;;;;;19.47;56.68;98385.84;1712626;82;21069;-73
2021/08/17 10:06:02;;;;;;;120.92;8.93;;;;;;;19.28;56.21;98382.46;1713121;82;21144;-72
2021/08/17 10:08:32;;;;;;;45.35;5.15;;;;;;;19.39;56.73;98390.11;1713211;83;21020;-72
2021/08/17 10:11:01;;;;;;;219.05;20.12;;;;;;;19.45;56.29;98370.92;1712382;83;20958;-72
2021/08/17 10:13:31;;;;;;;703.73;59.98;;;;;;;19.35;55.65;98375.55;1700568;83;20918;-72
2021/08/17 10:15:58;;;;;;;98.82;10.18;;;;;;;19.36;55.85;98382.48;1709004;83;21008;-72
2021/08/17 10:18:32;;;;;;;312.40;26.00;;;;;;;19.52;55.70;98383.51;1680888;83;22298;-71
2021/08/17 10:21:02;;;;;;;15.90;2.00;;;;;;;19.74;55.58;98388.22;1713805;83;21053;-72
2021/08/17 10:23:30;;;;;;;36.17;2.72;;;;;;;20.14;54.98;98383.95;1708381;82;21012;-70
2021/08/17 10:26:00;;;;;;;58.85;7.15;;;;;;;20.27;54.89;98390.89;1710205;83;20942;-70
2021/08/17 10:28:32;;;;;;;43.10;5.12;;;;;;;20.45;55.02;98387.25;1707764;83;21460;-69
2021/08/17 10:31:18;;;;;;;22.40;2.58;;;;;;;20.74;54.84;98387.53;1708668;82;21100;-69
2021/08/17 10:33:51;;;;;;;122.70;13.70;;;;;;;21.04;54.31;98371.86;1707957;81;21025;-69
2021/08/17 10:36:37;;;;;;;61.35;10.40;;;;;;;21.34;54.24;98367.58;1687636;83;21518;-69
2021/08/17 10:39:21;;;;;;;183.40;16.23;;;;;;;21.42;53.91;98365.39;1712820;81;20949;-68
2021/08/17 10:41:53;;;;;;;100.90;7.62;;;;;;;21.36;53.58;98374.03;1711746;82;20977;-69
2021/08/17 10:44:31;;;;;;;98.82;8.90;;;;;;;21.20;52.68;98377.11;1706091;81;21133;-69
2021/08/17 10:47:00;;;;;;;;;;;;;;;20.76;52.75;98384.22;1707951;82;21495;-69
2021/08/17 10:49:46;;;;;;;11.50;1.40;;;;;;;20.48;52.46;98393.54;1688155;82;20147;-69
2021/08/17 10:52:32;;;;;;;11.73;2.00;;;;;;;20.73;53.38;98389.88;1697265;83;21073;-68
2021/08/17 10:55:30;;;;;;;79.30;7.90;;;;;;;21.16;52.82;98393.03;1691850;83;21697;-69
2021/08/17 10:58:05;;;;;;;67.25;5.20;;;;;;;21.15;52.66;98399.34;1697022;83;21969;-68
2021/08/17 11:00:56;;;;;;;9.70;1.17;;;;;;;21.02;51.85;98396.41;1695677;83;21101;-68
2021/08/17 11:03:40;;;;;;;478.55;43.83;;;;;;;20.71;51.95;98402.47;1705247;83;21607;-69
2021/08/17 11:06:08;;;;;;;37.40;3.80;;;;;;;20.53;51.74;98405.33;1703940;83;20978;-68
2021/08/17 11:08:37;;;;;;;16.80;1.80;;;;;;;20.28;51.86;98407.64;1711786;83;21588;-69
2021/08/17 11:11:21;;;;;;;17.02;1.27;;;;;;;20.24;51.92;98419.05;1706716;83;21082;-69
2021/08/17 11:14:10;;;;;;;10.32;1.05;;;;;;;20.11;51.91;98405.49;1705670;83;21007;-69
2021/08/17 11:16:47;;;;;;;8.33;0.60;;;;;;;20.21;51.89;98406.13;1707796;83;21517;-69
2021/08/17 11:19:15;;;;;;;71.53;5.70;;;;;;;20.25;51.91;98419.41;1702403;82;20948;-68
2021/08/17 11:21:55;;;;;;;27.15;2.75;;;;;;;20.30;51.65;98418.38;1675341;83;21004;-69
2021/08/17 11:24:30;;;;;;;23.20;2.33;;;;;;;20.22;51.62;98415.77;1704002;82;21869;-69
2021/08/17 11:27:01;;;;;;;28.45;1.70;;;;;;;20.21;51.68;98432.63;1690927;83;20999;-69
2021/08/17 11:29:42;;;;;;;22.67;1.92;;;;;;;20.12;51.40;98425.69;1695601;82;21010;-68
2021/08/17 11:32:14;;;;;;;19.92;1.62;;;;;;;20.22;52.05;98421.06;1701578;82;21536;-68
2021/08/17 11:34:42;;;;;;;12.82;1.17;;;;;;;20.49;51.67;98421.70;1689710;83;21547;-68
2021/08/17 11:37:14;;;;;;;30.88;2.70;;;;;;;20.47;51.71;98422.35;1700528;83;21295;-68
2021/08/17 11:39:51;;;;;;;3.27;0.75;;;;;;;20.52;51.79;98428.81;1708065;82;21058;-68